createdAt,value
2019-05-29T00:01:49.359Z,12.90
2019-05-29T00:04:19.679Z,14.60
2019-05-29T00:06:49.994Z,12.98
2019-05-29T00:09:20.602Z,13.88
2019-05-29T00:11:51.869Z,11.43
2019-05-29T00:14:27.098Z,11.28
2019-05-29T00:16:54.035Z,11.73
2019-05-29T00:19:24.310Z,13.28
2019-05-29T00:21:54.571Z,12.68
2019-05-29T00:24:25.278Z,10.88
2019-05-29T00:26:55.687Z,12.25
2019-05-29T00:29:26.046Z,9.85
2019-05-29T00:31:56.375Z,11.68
2019-05-29T00:34:26.717Z,9.80
2019-05-29T00:36:56.974Z,10.85
2019-05-29T00:39:27.281Z,9.35
2019-05-29T00:41:57.598Z,9.28
2019-05-29T00:44:34.356Z,9.95
2019-05-29T00:47:01.084Z,10.55
2019-05-29T00:49:31.317Z,8.28
2019-05-29T00:52:01.578Z,9.15
2019-05-29T00:54:31.762Z,10.18
2019-05-29T00:57:01.986Z,19.10
2019-05-29T00:59:32.275Z,16.77
2019-05-29T01:02:02.520Z,13.88
2019-05-29T01:04:32.763Z,14.80
2019-05-29T01:07:03.145Z,14.85
2019-05-29T01:09:33.411Z,13.68
2019-05-29T01:12:03.680Z,11.30
2019-05-29T01:14:48.862Z,12.95
2019-05-29T01:17:05.900Z,13.13
2019-05-29T01:19:36.214Z,11.45
2019-05-29T01:22:06.510Z,10.82
2019-05-29T01:24:36.997Z,15.60
2019-05-29T01:27:07.253Z,9.68
2019-05-29T01:29:37.509Z,10.08
2019-05-29T01:32:07.617Z,11.33
2019-05-29T01:34:37.942Z,9.65
2019-05-29T01:37:08.382Z,8.98
2019-05-29T01:39:38.706Z,10.25
2019-05-29T01:42:08.988Z,9.30
2019-05-29T01:44:39.260Z,8.70
2019-05-29T01:47:09.526Z,7.87
2019-05-29T01:49:39.812Z,10.48
2019-05-29T01:52:10.114Z,8.55
2019-05-29T01:54:40.346Z,9.20
2019-05-29T01:57:10.622Z,9.38
2019-05-29T01:59:40.932Z,7.40
2019-05-29T02:02:11.191Z,9.35
2019-05-29T02:04:41.421Z,8.15
2019-05-29T02:07:11.646Z,8.90
2019-05-29T02:09:42.105Z,8.93
2019-05-29T02:12:12.276Z,5.45
2019-05-29T02:14:42.677Z,7.28
2019-05-29T02:17:12.917Z,5.50
2019-05-29T02:19:43.228Z,5.90
2019-05-29T02:22:13.570Z,5.55
2019-05-29T02:24:43.854Z,5.03
2019-05-29T02:27:14.152Z,7.10
2019-05-29T02:29:44.409Z,7.12
2019-05-29T02:32:14.619Z,6.12
2019-05-29T02:34:44.790Z,5.33
2019-05-29T02:37:14.984Z,4.25
2019-05-29T02:39:45.247Z,5.05
2019-05-29T02:42:15.506Z,5.20
2019-05-29T02:44:45.649Z,5.12
2019-05-29T02:47:15.858Z,5.15
2019-05-29T02:49:46.266Z,5.72
2019-05-29T02:52:16.484Z,4.92
2019-05-29T02:54:46.715Z,5.55
2019-05-29T02:57:16.825Z,4.55
2019-05-29T02:59:47.049Z,5.20
2019-05-29T03:02:17.275Z,13.50
2019-05-29T03:04:47.414Z,35.75
2019-05-29T03:07:17.545Z,35.70
2019-05-29T03:09:47.868Z,28.62
2019-05-29T03:12:18.265Z,22.60
2019-05-29T03:14:48.485Z,31.95
2019-05-29T03:17:18.762Z,34.05
2019-05-29T03:19:49.047Z,25.00
2019-05-29T03:22:19.369Z,32.15
2019-05-29T03:24:49.659Z,26.77
2019-05-29T03:27:19.919Z,30.25
2019-05-29T03:29:50.200Z,43.85
2019-05-29T03:32:20.472Z,38.70
2019-05-29T03:34:50.844Z,42.40
2019-05-29T03:37:21.092Z,29.82
2019-05-29T03:39:51.389Z,29.85
2019-05-29T03:42:21.631Z,33.00
2019-05-29T03:44:51.856Z,32.78
2019-05-29T03:47:22.148Z,32.98
2019-05-29T03:49:52.491Z,36.13
2019-05-29T03:52:22.687Z,28.75
2019-05-29T03:54:52.841Z,31.12
2019-05-29T03:57:23.170Z,29.60
2019-05-29T03:59:53.381Z,27.80
2019-05-29T04:02:23.678Z,29.75
2019-05-29T04:04:53.918Z,29.27
2019-05-29T04:07:24.159Z,26.75
2019-05-29T04:09:54.376Z,24.60
2019-05-29T04:12:24.694Z,29.85
2019-05-29T04:14:55.332Z,26.77
2019-05-29T04:17:25.976Z,27.45
2019-05-29T04:19:57.425Z,26.12
2019-05-29T04:22:32.910Z,25.48
2019-05-29T04:25:03.079Z,26.50
2019-05-29T04:27:34.271Z,25.70
2019-05-29T04:30:04.549Z,25.32
2019-05-29T04:32:36.393Z,24.52
2019-05-29T04:35:06.885Z,25.00
2019-05-29T04:37:39.477Z,22.85
2019-05-29T04:40:09.068Z,22.05
2019-05-29T04:42:40.086Z,23.65
2019-05-29T04:45:10.849Z,22.73
2019-05-29T04:47:41.249Z,23.95
2019-05-29T04:50:11.595Z,21.48
2019-05-29T04:52:41.766Z,20.08
2019-05-29T04:55:12.128Z,21.48
2019-05-29T04:57:42.368Z,22.55
2019-05-29T05:00:13.189Z,21.17
2019-05-29T05:02:43.436Z,20.88
2019-05-29T05:05:14.135Z,21.27
2019-05-29T05:07:44.381Z,20.15
2019-05-29T05:10:19.677Z,22.13
2019-05-29T05:12:49.952Z,19.17
2019-05-29T05:15:20.161Z,22.50
2019-05-29T05:17:50.503Z,23.22
2019-05-29T05:20:20.883Z,20.27
2019-05-29T05:22:51.247Z,24.35
2019-05-29T05:25:21.452Z,23.02
2019-05-29T05:27:51.670Z,22.32
2019-05-29T05:30:22.832Z,22.07
2019-05-29T05:32:53.107Z,22.60
2019-05-29T05:35:23.368Z,22.48
2019-05-29T05:37:53.793Z,22.27
2019-05-29T05:40:24.107Z,24.27
2019-05-29T05:42:54.404Z,22.80
2019-05-29T05:45:24.737Z,24.25
2019-05-29T05:47:57.825Z,20.75
2019-05-29T05:50:26.937Z,22.07
2019-05-29T05:52:57.235Z,22.32
2019-05-29T05:55:27.495Z,21.73
2019-05-29T05:57:57.708Z,22.32
2019-05-29T06:00:33.945Z,29.98
2019-05-29T06:03:04.272Z,23.22
2019-05-29T06:05:36.092Z,20.40
2019-05-29T06:08:06.677Z,21.35
2019-05-29T06:10:38.134Z,20.60
2019-05-29T06:13:08.423Z,20.92
2019-05-29T06:15:38.667Z,20.88
2019-05-29T06:18:20.699Z,21.05
2019-05-29T06:20:41.062Z,20.37
2019-05-29T06:23:11.265Z,19.07
2019-05-29T06:25:42.484Z,20.85
2019-05-29T06:28:13.488Z,21.10
2019-05-29T06:30:45.106Z,19.95
2019-05-29T06:33:15.363Z,18.00
2019-05-29T06:35:45.650Z,18.48
2019-05-29T06:38:15.889Z,19.52
2019-05-29T06:40:46.328Z,19.23
2019-05-29T06:43:23.567Z,20.55
2019-05-29T06:45:53.999Z,16.82
2019-05-29T06:48:41.294Z,21.60
2019-05-29T06:50:57.875Z,17.23
2019-05-29T06:53:28.273Z,17.02
2019-05-29T06:56:00.177Z,18.42
2019-05-29T06:58:31.891Z,17.98
2019-05-29T07:01:02.402Z,18.42
2019-05-29T07:03:32.648Z,15.98
2019-05-29T07:06:03.032Z,16.67
2019-05-29T07:08:39.124Z,14.98
2019-05-29T07:11:05.331Z,17.20
2019-05-29T07:13:37.706Z,18.10
2019-05-29T07:16:07.548Z,16.17
2019-05-29T07:18:38.597Z,15.03
2019-05-29T07:21:08.864Z,15.95
2019-05-29T07:23:41.237Z,17.10
2019-05-29T07:26:11.695Z,15.05
2019-05-29T07:29:02.026Z,15.05
2019-05-29T07:31:14.116Z,15.35
2019-05-29T07:33:45.262Z,14.30
2019-05-29T07:36:15.515Z,14.93
2019-05-29T07:38:56.170Z,15.45
2019-05-29T07:41:17.894Z,15.98
2019-05-29T07:43:48.243Z,15.30
2019-05-29T07:46:18.564Z,13.72
2019-05-29T07:48:50.409Z,12.85
2019-05-29T07:51:20.853Z,15.55
2019-05-29T07:53:52.102Z,16.32
2019-05-29T07:56:23.482Z,14.05
2019-05-29T07:59:02.725Z,13.28
2019-05-29T08:01:25.992Z,14.33
2019-05-29T08:03:56.271Z,12.73
2019-05-29T08:06:26.495Z,13.88
2019-05-29T08:08:56.772Z,12.85
2019-05-29T08:11:27.112Z,13.00
2019-05-29T08:13:57.351Z,12.23
2019-05-29T08:16:27.818Z,11.90
2019-05-29T08:18:58.165Z,12.68
2019-05-29T08:21:28.450Z,13.98
2019-05-29T08:23:58.730Z,12.28
2019-05-29T08:26:28.959Z,13.10
2019-05-29T08:28:59.487Z,11.70
2019-05-29T08:31:29.809Z,13.15
2019-05-29T08:34:00.106Z,11.08
2019-05-29T08:36:30.456Z,12.95
2019-05-29T08:39:00.721Z,11.70
2019-05-29T08:41:31.282Z,11.03
2019-05-29T08:44:01.557Z,11.30
2019-05-29T08:46:33.435Z,10.40
2019-05-29T08:49:03.856Z,10.23
2019-05-29T08:51:34.137Z,11.50
2019-05-29T08:54:21.020Z,9.70
2019-05-29T08:56:36.533Z,11.03
2019-05-29T08:59:06.901Z,11.45
2019-05-29T09:01:37.226Z,11.10
2019-05-29T09:04:07.415Z,9.90
2019-05-29T09:06:37.720Z,11.25
2019-05-29T09:09:08.563Z,10.78
2019-05-29T09:11:38.982Z,11.60
2019-05-29T09:14:09.169Z,9.80
2019-05-29T09:16:39.656Z,10.48
2019-05-29T09:19:10.446Z,9.75
2019-05-29T09:21:40.655Z,10.53
2019-05-29T09:24:12.857Z,11.05
2019-05-29T09:26:46.416Z,10.23
2019-05-29T09:29:19.995Z,11.03
2019-05-29T09:31:47.890Z,9.78
2019-05-29T09:34:18.812Z,9.85
2019-05-29T09:36:49.513Z,9.20
2019-05-29T09:39:20.995Z,10.28
2019-05-29T09:41:51.268Z,8.78
2019-05-29T09:44:33.868Z,9.53
2019-05-29T09:46:53.410Z,9.25
2019-05-29T09:49:23.959Z,8.80
2019-05-29T09:51:54.285Z,8.65
2019-05-29T09:54:24.633Z,9.70
2019-05-29T09:56:56.699Z,9.15
2019-05-29T09:59:27.128Z,9.73
2019-05-29T10:02:02.102Z,8.75
2019-05-29T10:04:29.414Z,8.15
2019-05-29T10:06:59.674Z,9.70
2019-05-29T10:09:30.043Z,9.18
2019-05-29T10:12:04.949Z,9.28
2019-05-29T10:14:32.415Z,8.13
2019-05-29T10:17:08.193Z,8.15
2019-05-29T10:19:35.561Z,8.78
2019-05-29T10:22:05.935Z,9.15
2019-05-29T10:24:37.290Z,8.90
2019-05-29T10:27:07.934Z,8.53
2019-05-29T10:29:38.249Z,8.35
2019-05-29T10:32:08.485Z,7.40
2019-05-29T10:34:38.634Z,7.87
2019-05-29T10:37:08.868Z,7.20
2019-05-29T10:39:39.177Z,7.78
2019-05-29T10:42:09.369Z,7.55
2019-05-29T10:44:39.637Z,7.22
2019-05-29T10:47:09.901Z,7.42
2019-05-29T10:49:40.257Z,7.58
2019-05-29T10:52:15.971Z,7.58
2019-05-29T10:54:42.548Z,7.28
2019-05-29T10:57:12.843Z,7.22
2019-05-29T10:59:43.097Z,7.83
2019-05-29T11:02:13.399Z,8.03
2019-05-29T11:04:47.584Z,7.05
2019-05-29T11:07:15.588Z,7.40
2019-05-29T11:09:46.912Z,7.22
2019-05-29T11:12:18.717Z,7.12
2019-05-29T11:14:49.098Z,6.60
2019-05-29T11:17:19.333Z,7.78
2019-05-29T11:19:49.528Z,7.37
2019-05-29T11:22:26.357Z,7.30
2019-05-29T11:24:52.360Z,6.20
2019-05-29T11:27:26.062Z,7.17
2019-05-29T11:29:55.189Z,6.92
2019-05-29T11:32:25.572Z,7.05
2019-05-29T11:34:55.777Z,6.90
2019-05-29T11:37:26.005Z,7.12
2019-05-29T11:39:56.828Z,6.20
2019-05-29T11:42:28.296Z,5.85
2019-05-29T11:44:59.583Z,6.55
2019-05-29T11:47:29.947Z,6.75
2019-05-29T11:50:10.202Z,6.72
2019-05-29T11:52:42.518Z,6.00
2019-05-29T11:55:07.939Z,6.83
2019-05-29T11:57:39.454Z,6.62
2019-05-29T12:00:18.977Z,5.87
2019-05-29T12:02:40.627Z,6.45
2019-05-29T12:05:11.034Z,6.67
2019-05-29T12:07:41.286Z,6.70
2019-05-29T12:10:11.930Z,5.60
2019-05-29T12:12:42.194Z,6.03
2019-05-29T12:15:15.550Z,6.55
2019-05-29T12:17:44.664Z,5.50
2019-05-29T12:20:27.244Z,5.53
2019-05-29T12:23:11.416Z,6.33
2019-05-29T12:25:18.773Z,5.58
2019-05-29T12:27:49.077Z,5.58
2019-05-29T12:30:19.415Z,6.33
2019-05-29T12:32:49.799Z,5.87
2019-05-29T12:35:20.047Z,5.40
2019-05-29T12:37:50.252Z,5.70
2019-05-29T12:40:20.509Z,5.70
2019-05-29T12:42:53.423Z,7.15
2019-05-29T12:45:23.888Z,5.50
2019-05-29T12:47:55.796Z,5.00
2019-05-29T12:50:26.284Z,6.53
2019-05-29T12:52:57.702Z,5.12
2019-05-29T12:55:28.082Z,5.42
2019-05-29T12:57:58.436Z,6.00
2019-05-29T13:00:29.183Z,4.72
2019-05-29T13:03:00.750Z,6.50
2019-05-29T13:05:32.323Z,5.62
2019-05-29T13:08:05.119Z,4.90
2019-05-29T13:10:35.434Z,7.05
2019-05-29T13:13:10.763Z,5.25
2019-05-29T13:15:37.953Z,5.40
2019-05-29T13:18:10.077Z,5.10
2019-05-29T13:20:40.258Z,4.67
2019-05-29T13:23:11.574Z,4.62
2019-05-29T13:25:41.924Z,6.75
2019-05-29T13:28:12.229Z,4.92
2019-05-29T13:30:42.499Z,5.25
2019-05-29T13:33:12.710Z,4.85
2019-05-29T13:35:47.127Z,4.10
2019-05-29T13:38:17.433Z,7.85
2019-05-29T13:40:47.694Z,8.13
2019-05-29T13:43:17.797Z,5.05
2019-05-29T13:45:47.890Z,5.42
2019-05-29T13:48:18.004Z,4.97
2019-05-29T13:50:48.945Z,4.62
2019-05-29T13:53:19.134Z,6.00
2019-05-29T13:55:49.247Z,4.50
2019-05-29T13:58:19.384Z,4.42
2019-05-29T14:00:49.574Z,6.70
2019-05-29T14:03:19.744Z,5.40
2019-05-29T14:05:49.938Z,5.42
2019-05-29T14:08:20.120Z,3.58
2019-05-29T14:10:51.523Z,4.37
2019-05-29T14:13:21.641Z,4.15
2019-05-29T14:15:51.766Z,8.28
2019-05-29T14:18:21.946Z,4.33
2019-05-29T14:20:52.136Z,5.17
2019-05-29T14:23:23.314Z,6.00
2019-05-29T14:25:54.530Z,4.40
2019-05-29T14:28:24.712Z,7.33
2019-05-29T14:30:54.855Z,4.10
2019-05-29T14:33:24.950Z,4.87
2019-05-29T14:35:55.077Z,3.35
2019-05-29T14:38:25.261Z,3.33
2019-05-29T14:40:55.357Z,4.42
2019-05-29T14:43:25.498Z,3.70
2019-05-29T14:45:55.606Z,3.85
2019-05-29T14:48:25.824Z,3.30
2019-05-29T14:50:56.026Z,3.35
2019-05-29T14:53:26.381Z,5.55
2019-05-29T14:55:56.506Z,3.40
2019-05-29T14:58:26.652Z,3.75
2019-05-29T15:00:56.901Z,3.50
2019-05-29T15:03:27.191Z,4.80
2019-05-29T15:05:57.454Z,4.03
2019-05-29T15:08:27.519Z,4.35
2019-05-29T15:10:57.637Z,3.45
2019-05-29T15:13:27.978Z,3.22
2019-05-29T15:15:58.116Z,3.80
2019-05-29T15:18:28.285Z,2.87
2019-05-29T15:20:58.410Z,5.35
2019-05-29T15:23:28.507Z,3.35
2019-05-29T15:25:58.668Z,3.42
2019-05-29T15:28:28.815Z,4.17
2019-05-29T15:30:59.000Z,3.75
2019-05-29T15:33:29.132Z,3.08
2019-05-29T15:35:59.234Z,4.45
2019-05-29T15:38:29.643Z,4.45
2019-05-29T15:40:59.789Z,3.95
2019-05-29T15:43:29.908Z,4.45
2019-05-29T15:46:00.074Z,3.12
2019-05-29T15:48:30.215Z,3.42
2019-05-29T15:51:00.339Z,25.05
2019-05-29T15:53:30.685Z,37.15
2019-05-29T15:56:16.979Z,54.55
2019-05-29T15:58:32.705Z,45.65
2019-05-29T16:01:02.880Z,39.73
2019-05-29T16:03:33.065Z,34.00
2019-05-29T16:06:03.432Z,25.45
2019-05-29T16:08:33.584Z,20.27
2019-05-29T16:11:03.694Z,17.85
2019-05-29T16:13:34.721Z,18.82
2019-05-29T16:16:04.838Z,65.28
2019-05-29T16:18:34.953Z,96.28
2019-05-29T16:21:05.099Z,64.45
2019-05-29T16:23:36.125Z,55.05
2019-05-29T16:26:06.367Z,44.85
2019-05-29T16:28:36.504Z,38.67
2019-05-29T16:31:06.752Z,36.60
2019-05-29T16:33:36.916Z,33.70
2019-05-29T16:36:07.034Z,32.10
2019-05-29T16:38:37.177Z,32.08
2019-05-29T16:41:07.297Z,32.03
2019-05-29T16:43:37.512Z,31.42
2019-05-29T16:46:07.631Z,30.12
2019-05-29T16:48:37.897Z,27.30
2019-05-29T16:51:08.044Z,28.40
2019-05-29T16:53:38.179Z,28.50
2019-05-29T16:56:08.315Z,26.17
2019-05-29T16:58:38.443Z,23.98
2019-05-29T17:01:08.564Z,35.23
2019-05-29T17:03:38.707Z,74.40
2019-05-29T17:06:08.827Z,59.42
2019-05-29T17:08:38.957Z,40.25
2019-05-29T17:11:09.151Z,26.85
2019-05-29T17:13:40.336Z,38.63
2019-05-29T17:16:10.443Z,52.85
2019-05-29T17:18:40.648Z,32.38
2019-05-29T17:21:10.823Z,24.02
2019-05-29T17:23:40.969Z,23.07
2019-05-29T17:26:11.464Z,24.35
2019-05-29T17:28:41.557Z,24.50
2019-05-29T17:31:11.782Z,24.15
2019-05-29T17:33:41.961Z,53.65
2019-05-29T17:36:12.185Z,57.38
2019-05-29T17:38:45.198Z,49.85
2019-05-29T17:41:15.341Z,44.35
2019-05-29T17:43:46.528Z,37.30
2019-05-29T17:46:17.472Z,40.20
2019-05-29T17:48:47.698Z,26.00
2019-05-29T17:51:17.916Z,28.60
2019-05-29T17:53:48.166Z,14.98
2019-05-29T17:56:31.986Z,20.35
2019-05-29T17:58:50.247Z,28.00
2019-05-29T18:01:20.548Z,36.30
2019-05-29T18:03:50.733Z,33.50
2019-05-29T18:06:20.980Z,23.00
2019-05-29T18:08:51.218Z,21.27
2019-05-29T18:11:21.459Z,11.68
2019-05-29T18:13:51.625Z,8.75
2019-05-29T18:16:23.541Z,8.93
2019-05-29T18:18:54.123Z,11.78
2019-05-29T18:21:25.758Z,8.93
2019-05-29T18:23:56.226Z,9.45
2019-05-29T18:26:42.648Z,7.35
2019-05-29T18:28:58.784Z,8.88
2019-05-29T18:31:29.470Z,12.82
2019-05-29T18:33:59.909Z,8.78
2019-05-29T18:36:31.394Z,14.65
2019-05-29T18:39:03.842Z,14.50
2019-05-29T18:41:34.402Z,19.82
2019-05-29T18:44:05.236Z,17.35
2019-05-29T18:46:38.058Z,17.12
2019-05-29T18:49:07.959Z,18.80
2019-05-29T18:51:38.456Z,19.30
2019-05-29T18:54:08.912Z,18.98
2019-05-29T18:56:42.118Z,20.30
2019-05-29T18:59:12.341Z,18.00
2019-05-29T19:01:42.904Z,19.07
2019-05-29T19:04:13.370Z,22.27
2019-05-29T19:06:45.168Z,22.05
2019-05-29T19:09:15.608Z,21.23
2019-05-29T19:11:45.964Z,20.72
2019-05-29T19:14:16.198Z,44.20
2019-05-29T19:16:46.738Z,53.28
2019-05-29T19:19:16.995Z,55.40
2019-05-29T19:21:47.393Z,46.98
2019-05-29T19:24:17.727Z,49.50
2019-05-29T19:26:47.989Z,54.05
2019-05-29T19:29:18.369Z,55.43
2019-05-29T19:31:49.336Z,51.83
2019-05-29T19:34:19.570Z,54.33
2019-05-29T19:36:49.848Z,53.08
2019-05-29T19:39:20.065Z,53.80
2019-05-29T19:41:50.321Z,51.68
2019-05-29T19:44:21.528Z,54.10
2019-05-29T19:46:54.105Z,45.88
2019-05-29T19:49:25.419Z,45.15
2019-05-29T19:51:56.074Z,40.30
2019-05-29T19:54:27.463Z,39.73
2019-05-29T19:56:57.946Z,47.55
2019-05-29T19:59:28.229Z,41.10
2019-05-29T20:01:58.411Z,42.08
2019-05-29T20:04:30.550Z,39.38
2019-05-29T20:07:00.759Z,41.68
2019-05-29T20:09:31.279Z,43.87
2019-05-29T20:12:01.575Z,36.93
2019-05-29T20:14:32.063Z,36.55
2019-05-29T20:17:02.344Z,38.78
2019-05-29T20:19:35.829Z,49.73
2019-05-29T20:22:04.649Z,36.00
2019-05-29T20:24:35.017Z,36.50
2019-05-29T20:27:05.301Z,32.90
2019-05-29T20:29:36.431Z,32.35
2019-05-29T20:32:07.924Z,34.15
2019-05-29T20:34:39.010Z,37.15
2019-05-29T20:37:09.401Z,33.95
2019-05-29T20:39:39.629Z,34.63
2019-05-29T20:42:12.115Z,39.65
2019-05-29T20:44:43.046Z,38.83
2019-05-29T20:47:13.420Z,35.48
2019-05-29T20:49:47.321Z,35.95
2019-05-29T20:52:15.586Z,35.83
2019-05-29T20:54:45.790Z,34.23
2019-05-29T20:57:15.965Z,34.40
2019-05-29T20:59:46.179Z,35.00
2019-05-29T21:02:16.360Z,36.83
2019-05-29T21:04:46.475Z,41.00
2019-05-29T21:07:16.588Z,40.73
2019-05-29T21:09:46.712Z,45.40
2019-05-29T21:12:16.901Z,49.27
2019-05-29T21:14:47.013Z,53.95
2019-05-29T21:17:18.173Z,56.20
2019-05-29T21:19:48.418Z,57.58
2019-05-29T21:22:18.528Z,57.25
2019-05-29T21:24:59.965Z,56.88
2019-05-29T21:27:20.544Z,58.70
2019-05-29T21:29:50.650Z,58.75
2019-05-29T21:32:20.844Z,53.58
2019-05-29T21:34:51.031Z,61.45
2019-05-29T21:37:21.164Z,59.88
2019-05-29T21:39:51.266Z,56.48
2019-05-29T21:42:21.404Z,54.88
2019-05-29T21:44:51.550Z,59.25
2019-05-29T21:47:21.693Z,53.25
2019-05-29T21:49:51.860Z,54.85
2019-05-29T21:52:22.034Z,54.15
2019-05-29T21:54:52.168Z,54.67
2019-05-29T21:57:22.322Z,52.58
2019-05-29T21:59:52.500Z,56.92
2019-05-29T22:02:23.004Z,56.77
2019-05-29T22:04:53.185Z,67.65
2019-05-29T22:07:23.315Z,77.20
2019-05-29T22:09:54.568Z,80.22
2019-05-29T22:12:24.658Z,102.75
2019-05-29T22:14:55.174Z,81.10
2019-05-29T22:17:25.345Z,73.33
2019-05-29T22:19:55.495Z,69.47
2019-05-29T22:22:25.597Z,68.35
2019-05-29T22:24:55.729Z,71.15
2019-05-29T22:27:26.843Z,73.42
2019-05-29T22:29:57.402Z,68.15
2019-05-29T22:32:28.712Z,67.47
2019-05-29T22:34:59.599Z,67.47
2019-05-29T22:37:29.903Z,67.03
2019-05-29T22:40:00.171Z,66.62
2019-05-29T22:42:30.454Z,65.52
2019-05-29T22:45:02.106Z,69.42
2019-05-29T22:47:32.577Z,67.32
2019-05-29T22:50:06.333Z,64.72
2019-05-29T22:52:36.687Z,68.47
2019-05-29T22:55:07.022Z,66.92
2019-05-29T22:57:37.259Z,63.58
2019-05-29T23:00:08.168Z,63.13
2019-05-29T23:02:38.420Z,65.40
2019-05-29T23:05:08.737Z,62.08
2019-05-29T23:07:39.037Z,65.55
2019-05-29T23:10:09.384Z,61.83
2019-05-29T23:12:39.681Z,68.22
2019-05-29T23:15:10.077Z,62.03
2019-05-29T23:17:40.365Z,61.73
2019-05-29T23:20:10.676Z,64.07
2019-05-29T23:22:40.896Z,63.73
2019-05-29T23:25:11.194Z,60.33
2019-05-29T23:27:41.349Z,64.47
2019-05-29T23:30:12.749Z,58.50
2019-05-29T23:32:42.911Z,61.20
2019-05-29T23:35:13.129Z,60.00
2019-05-29T23:37:43.415Z,59.33
2019-05-29T23:40:13.653Z,56.95
2019-05-29T23:42:43.988Z,67.08
2019-05-29T23:45:14.280Z,60.20
2019-05-29T23:47:44.628Z,55.98
2019-05-29T23:50:15.026Z,59.90
2019-05-29T23:52:45.197Z,53.65
2019-05-29T23:55:15.419Z,56.13
2019-05-29T23:57:45.818Z,53.30
